sensor_id;sensor_type;location;lat;lon;timestamp;P1;durP1;ratioP1;P2;durP2;ratioP2
28483;SDS011;15704;48.834;8.736;2022-10-16T00:01:05;1.00;;;0.80;;
28483;SDS011;15704;48.834;8.736;2022-10-16T00:03:36;1.10;;;0.77;;
28483;SDS011;15704;48.834;8.736;2022-10-16T00:06:03;1.30;;;1.08;;
28483;SDS011;15704;48.834;8.736;2022-10-16T00:08:29;0.80;;;0.73;;
28483;SDS011;15704;48.834;8.736;2022-10-16T00:10:59;1.05;;;0.80;;
28483;SDS011;15704;48.834;8.736;2022-10-16T00:13:30;1.23;;;1.00;;
28483;SDS011;15704;48.834;8.736;2022-10-16T00:15:57;0.93;;;0.80;;
28483;SDS011;15704;48.834;8.736;2022-10-16T00:18:24;1.10;;;1.00;;
28483;SDS011;15704;48.834;8.736;2022-10-16T00:20:50;1.48;;;0.90;;
28483;SDS011;15704;48.834;8.736;2022-10-16T00:23:16;1.73;;;1.00;;
28483;SDS011;15704;48.834;8.736;2022-10-16T00:25:42;1.27;;;0.90;;
28483;SDS011;15704;48.834;8.736;2022-10-16T00:28:07;0.93;;;0.85;;
28483;SDS011;15704;48.834;8.736;2022-10-16T00:30:33;1.00;;;0.82;;
28483;SDS011;15704;48.834;8.736;2022-10-16T00:33:02;1.15;;;0.90;;
28483;SDS011;15704;48.834;8.736;2022-10-16T00:35:27;1.35;;;0.80;;
28483;SDS011;15704;48.834;8.736;2022-10-16T00:37:54;1.85;;;0.75;;
28483;SDS011;15704;48.834;8.736;2022-10-16T00:40:19;1.42;;;0.85;;
28483;SDS011;15704;48.834;8.736;2022-10-16T00:42:45;1.05;;;0.88;;
28483;SDS011;15704;48.834;8.736;2022-10-16T00:45:10;1.48;;;1.10;;
28483;SDS011;15704;48.834;8.736;2022-10-16T00:47:37;1.00;;;0.85;;
28483;SDS011;15704;48.834;8.736;2022-10-16T00:50:11;1.13;;;0.90;;
28483;SDS011;15704;48.834;8.736;2022-10-16T00:52:44;0.60;;;0.60;;
28483;SDS011;15704;48.834;8.736;2022-10-16T00:55:13;0.80;;;0.80;;
28483;SDS011;15704;48.834;8.736;2022-10-16T00:57:39;2.72;;;0.80;;
28483;SDS011;15704;48.834;8.736;2022-10-16T01:00:06;0.93;;;0.60;;
28483;SDS011;15704;48.834;8.736;2022-10-16T01:02:34;0.75;;;0.75;;
28483;SDS011;15704;48.834;8.736;2022-10-16T01:05:00;1.65;;;0.80;;
28483;SDS011;15704;48.834;8.736;2022-10-16T01:13:24;0.98;;;0.85;;
28483;SDS011;15704;48.834;8.736;2022-10-16T01:16:05;0.93;;;0.75;;
28483;SDS011;15704;48.834;8.736;2022-10-16T01:18:39;1.10;;;0.90;;
28483;SDS011;15704;48.834;8.736;2022-10-16T01:21:14;1.20;;;0.90;;
28483;SDS011;15704;48.834;8.736;2022-10-16T01:24:01;0.80;;;0.60;;
28483;SDS011;15704;48.834;8.736;2022-10-16T01:29:34;0.77;;;0.70;;
28483;SDS011;15704;48.834;8.736;2022-10-16T01:32:10;1.02;;;0.80;;
28483;SDS011;15704;48.834;8.736;2022-10-16T01:34:59;0.73;;;0.73;;
28483;SDS011;15704;48.834;8.736;2022-10-16T01:40:03;0.77;;;0.70;;
28483;SDS011;15704;48.834;8.736;2022-10-16T01:42:34;0.63;;;0.55;;
28483;SDS011;15704;48.834;8.736;2022-10-16T01:45:09;1.05;;;0.80;;
28483;SDS011;15704;48.834;8.736;2022-10-16T01:47:38;1.27;;;0.85;;
28483;SDS011;15704;48.834;8.736;2022-10-16T01:50:05;1.23;;;0.90;;
28483;SDS011;15704;48.834;8.736;2022-10-16T01:52:34;0.95;;;0.70;;
28483;SDS011;15704;48.834;8.736;2022-10-16T01:55:04;0.93;;;0.82;;
28483;SDS011;15704;48.834;8.736;2022-10-16T01:57:33;0.80;;;0.80;;
28483;SDS011;15704;48.834;8.736;2022-10-16T02:00:05;0.70;;;0.70;;
28483;SDS011;15704;48.834;8.736;2022-10-16T02:05:04;0.75;;;0.70;;
28483;SDS011;15704;48.834;8.736;2022-10-16T02:07:35;1.52;;;0.70;;
28483;SDS011;15704;48.834;8.736;2022-10-16T02:10:01;1.02;;;0.85;;
28483;SDS011;15704;48.834;8.736;2022-10-16T02:12:28;1.42;;;0.82;;
28483;SDS011;15704;48.834;8.736;2022-10-16T02:14:56;1.00;;;0.80;;
28483;SDS011;15704;48.834;8.736;2022-10-16T02:17:22;0.75;;;0.75;;
28483;SDS011;15704;48.834;8.736;2022-10-16T02:19:49;0.80;;;0.60;;
28483;SDS011;15704;48.834;8.736;2022-10-16T02:22:22;1.08;;;0.70;;
28483;SDS011;15704;48.834;8.736;2022-10-16T02:24:59;0.63;;;0.63;;
28483;SDS011;15704;48.834;8.736;2022-10-16T02:32:46;0.77;;;0.60;;
28483;SDS011;15704;48.834;8.736;2022-10-16T02:35:13;0.80;;;0.70;;
28483;SDS011;15704;48.834;8.736;2022-10-16T02:37:41;0.60;;;0.60;;
28483;SDS011;15704;48.834;8.736;2022-10-16T02:40:08;0.55;;;0.50;;
28483;SDS011;15704;48.834;8.736;2022-10-16T02:42:36;1.00;;;0.70;;
28483;SDS011;15704;48.834;8.736;2022-10-16T02:45:04;0.65;;;0.65;;
28483;SDS011;15704;48.834;8.736;2022-10-16T02:47:31;0.95;;;0.80;;
28483;SDS011;15704;48.834;8.736;2022-10-16T02:49:56;0.60;;;0.55;;
28483;SDS011;15704;48.834;8.736;2022-10-16T02:52:22;1.13;;;0.73;;
28483;SDS011;15704;48.834;8.736;2022-10-16T02:54:48;0.70;;;0.50;;
28483;SDS011;15704;48.834;8.736;2022-10-16T02:57:13;1.00;;;0.80;;
28483;SDS011;15704;48.834;8.736;2022-10-16T02:59:39;0.88;;;0.70;;
28483;SDS011;15704;48.834;8.736;2022-10-16T03:02:05;0.57;;;0.57;;
28483;SDS011;15704;48.834;8.736;2022-10-16T03:04:30;0.70;;;0.70;;
28483;SDS011;15704;48.834;8.736;2022-10-16T03:06:56;0.75;;;0.57;;
28483;SDS011;15704;48.834;8.736;2022-10-16T03:09:21;1.02;;;0.60;;
28483;SDS011;15704;48.834;8.736;2022-10-16T03:11:47;0.70;;;0.70;;
28483;SDS011;15704;48.834;8.736;2022-10-16T03:14:13;0.50;;;0.50;;
28483;SDS011;15704;48.834;8.736;2022-10-16T03:16:39;1.35;;;0.60;;
28483;SDS011;15704;48.834;8.736;2022-10-16T03:19:04;0.85;;;0.63;;
28483;SDS011;15704;48.834;8.736;2022-10-16T03:21:30;0.70;;;0.60;;
28483;SDS011;15704;48.834;8.736;2022-10-16T03:23:55;0.57;;;0.47;;
28483;SDS011;15704;48.834;8.736;2022-10-16T03:26:21;0.85;;;0.60;;
28483;SDS011;15704;48.834;8.736;2022-10-16T03:28:46;0.77;;;0.70;;
28483;SDS011;15704;48.834;8.736;2022-10-16T03:31:12;0.63;;;0.63;;
28483;SDS011;15704;48.834;8.736;2022-10-16T03:33:38;0.70;;;0.70;;
28483;SDS011;15704;48.834;8.736;2022-10-16T03:36:03;2.35;;;0.73;;
28483;SDS011;15704;48.834;8.736;2022-10-16T03:38:29;0.82;;;0.50;;
28483;SDS011;15704;48.834;8.736;2022-10-16T03:40:54;1.52;;;0.80;;
28483;SDS011;15704;48.834;8.736;2022-10-16T03:43:20;0.75;;;0.60;;
28483;SDS011;15704;48.834;8.736;2022-10-16T03:45:46;0.52;;;0.52;;
28483;SDS011;15704;48.834;8.736;2022-10-16T03:48:11;0.60;;;0.60;;
28483;SDS011;15704;48.834;8.736;2022-10-16T03:50:37;0.52;;;0.52;;
28483;SDS011;15704;48.834;8.736;2022-10-16T03:53:03;1.77;;;0.70;;
28483;SDS011;15704;48.834;8.736;2022-10-16T03:55:28;0.57;;;0.57;;
28483;SDS011;15704;48.834;8.736;2022-10-16T03:57:54;0.98;;;0.88;;
28483;SDS011;15704;48.834;8.736;2022-10-16T04:00:19;2.67;;;0.60;;
28483;SDS011;15704;48.834;8.736;2022-10-16T04:02:45;0.88;;;0.70;;
28483;SDS011;15704;48.834;8.736;2022-10-16T04:05:10;0.68;;;0.57;;
28483;SDS011;15704;48.834;8.736;2022-10-16T04:07:36;0.80;;;0.57;;
28483;SDS011;15704;48.834;8.736;2022-10-16T04:10:04;0.63;;;0.63;;
28483;SDS011;15704;48.834;8.736;2022-10-16T04:12:30;0.80;;;0.70;;
28483;SDS011;15704;48.834;8.736;2022-10-16T04:14:56;0.52;;;0.50;;
28483;SDS011;15704;48.834;8.736;2022-10-16T04:17:22;0.50;;;0.50;;
28483;SDS011;15704;48.834;8.736;2022-10-16T04:19:47;0.80;;;0.65;;
28483;SDS011;15704;48.834;8.736;2022-10-16T04:22:13;0.98;;;0.60;;
28483;SDS011;15704;48.834;8.736;2022-10-16T04:24:38;0.98;;;0.77;;
28483;SDS011;15704;48.834;8.736;2022-10-16T04:27:04;0.98;;;0.70;;
28483;SDS011;15704;48.834;8.736;2022-10-16T04:29:29;0.57;;;0.50;;
28483;SDS011;15704;48.834;8.736;2022-10-16T04:31:55;0.80;;;0.70;;
28483;SDS011;15704;48.834;8.736;2022-10-16T04:34:21;0.80;;;0.68;;
28483;SDS011;15704;48.834;8.736;2022-10-16T04:36:47;0.60;;;0.60;;
28483;SDS011;15704;48.834;8.736;2022-10-16T04:39:16;0.60;;;0.60;;
28483;SDS011;15704;48.834;8.736;2022-10-16T04:41:41;0.80;;;0.43;;
28483;SDS011;15704;48.834;8.736;2022-10-16T04:44:07;1.25;;;0.60;;
28483;SDS011;15704;48.834;8.736;2022-10-16T04:46:33;0.50;;;0.50;;
28483;SDS011;15704;48.834;8.736;2022-10-16T04:48:58;0.70;;;0.70;;
28483;SDS011;15704;48.834;8.736;2022-10-16T04:51:24;0.60;;;0.60;;
28483;SDS011;15704;48.834;8.736;2022-10-16T04:53:51;1.02;;;0.73;;
28483;SDS011;15704;48.834;8.736;2022-10-16T04:56:16;0.40;;;0.40;;
28483;SDS011;15704;48.834;8.736;2022-10-16T04:58:42;0.75;;;0.52;;
28483;SDS011;15704;48.834;8.736;2022-10-16T05:01:07;1.10;;;0.65;;
28483;SDS011;15704;48.834;8.736;2022-10-16T05:03:33;0.70;;;0.52;;
28483;SDS011;15704;48.834;8.736;2022-10-16T05:05:59;0.40;;;0.40;;
28483;SDS011;15704;48.834;8.736;2022-10-16T05:08:24;0.93;;;0.63;;
28483;SDS011;15704;48.834;8.736;2022-10-16T05:10:50;0.57;;;0.55;;
28483;SDS011;15704;48.834;8.736;2022-10-16T05:13:15;0.65;;;0.65;;
28483;SDS011;15704;48.834;8.736;2022-10-16T05:15:41;0.43;;;0.43;;
28483;SDS011;15704;48.834;8.736;2022-10-16T05:18:07;0.52;;;0.50;;
28483;SDS011;15704;48.834;8.736;2022-10-16T05:20:34;0.77;;;0.68;;
28483;SDS011;15704;48.834;8.736;2022-10-16T05:22:59;0.90;;;0.77;;
28483;SDS011;15704;48.834;8.736;2022-10-16T05:25:25;0.60;;;0.50;;
28483;SDS011;15704;48.834;8.736;2022-10-16T05:27:51;0.50;;;0.50;;
28483;SDS011;15704;48.834;8.736;2022-10-16T05:30:16;0.50;;;0.50;;
28483;SDS011;15704;48.834;8.736;2022-10-16T05:32:46;0.57;;;0.50;;
28483;SDS011;15704;48.834;8.736;2022-10-16T05:35:15;0.50;;;0.50;;
28483;SDS011;15704;48.834;8.736;2022-10-16T05:37:42;0.80;;;0.60;;
28483;SDS011;15704;48.834;8.736;2022-10-16T05:40:08;0.40;;;0.40;;
28483;SDS011;15704;48.834;8.736;2022-10-16T05:42:34;0.60;;;0.60;;
28483;SDS011;15704;48.834;8.736;2022-10-16T05:45:00;0.75;;;0.68;;
28483;SDS011;15704;48.834;8.736;2022-10-16T05:47:25;0.50;;;0.50;;
28483;SDS011;15704;48.834;8.736;2022-10-16T05:49:51;0.77;;;0.65;;
28483;SDS011;15704;48.834;8.736;2022-10-16T05:52:17;0.40;;;0.40;;
28483;SDS011;15704;48.834;8.736;2022-10-16T05:54:42;1.67;;;0.45;;
28483;SDS011;15704;48.834;8.736;2022-10-16T05:57:08;0.40;;;0.40;;
28483;SDS011;15704;48.834;8.736;2022-10-16T05:59:34;0.80;;;0.55;;
28483;SDS011;15704;48.834;8.736;2022-10-16T06:01:59;0.60;;;0.50;;
28483;SDS011;15704;48.834;8.736;2022-10-16T06:04:25;0.50;;;0.50;;
28483;SDS011;15704;48.834;8.736;2022-10-16T06:06:50;0.60;;;0.50;;
28483;SDS011;15704;48.834;8.736;2022-10-16T06:09:16;0.65;;;0.60;;
28483;SDS011;15704;48.834;8.736;2022-10-16T06:11:41;0.50;;;0.50;;
28483;SDS011;15704;48.834;8.736;2022-10-16T06:14:07;0.50;;;0.47;;
28483;SDS011;15704;48.834;8.736;2022-10-16T06:16:34;0.40;;;0.40;;
28483;SDS011;15704;48.834;8.736;2022-10-16T06:19:01;0.47;;;0.47;;
28483;SDS011;15704;48.834;8.736;2022-10-16T06:21:29;0.70;;;0.50;;
28483;SDS011;15704;48.834;8.736;2022-10-16T06:23:55;0.40;;;0.40;;
28483;SDS011;15704;48.834;8.736;2022-10-16T06:26:23;0.50;;;0.50;;
28483;SDS011;15704;48.834;8.736;2022-10-16T06:28:51;1.30;;;0.50;;
28483;SDS011;15704;48.834;8.736;2022-10-16T06:31:16;0.70;;;0.60;;
28483;SDS011;15704;48.834;8.736;2022-10-16T06:33:42;0.80;;;0.57;;
28483;SDS011;15704;48.834;8.736;2022-10-16T06:36:12;0.50;;;0.50;;
28483;SDS011;15704;48.834;8.736;2022-10-16T06:38:39;0.73;;;0.63;;
28483;SDS011;15704;48.834;8.736;2022-10-16T06:41:06;0.70;;;0.70;;
28483;SDS011;15704;48.834;8.736;2022-10-16T06:43:32;0.45;;;0.45;;
28483;SDS011;15704;48.834;8.736;2022-10-16T06:46:02;0.50;;;0.50;;
28483;SDS011;15704;48.834;8.736;2022-10-16T06:48:29;0.40;;;0.40;;
28483;SDS011;15704;48.834;8.736;2022-10-16T06:51:02;0.40;;;0.40;;
28483;SDS011;15704;48.834;8.736;2022-10-16T06:53:33;0.80;;;0.60;;
28483;SDS011;15704;48.834;8.736;2022-10-16T06:56:15;0.50;;;0.50;;
28483;SDS011;15704;48.834;8.736;2022-10-16T06:58:44;0.40;;;0.40;;
28483;SDS011;15704;48.834;8.736;2022-10-16T07:01:11;0.52;;;0.52;;
28483;SDS011;15704;48.834;8.736;2022-10-16T07:03:37;0.47;;;0.47;;
28483;SDS011;15704;48.834;8.736;2022-10-16T07:06:04;0.50;;;0.50;;
28483;SDS011;15704;48.834;8.736;2022-10-16T07:08:35;0.50;;;0.50;;
28483;SDS011;15704;48.834;8.736;2022-10-16T07:11:03;1.58;;;0.80;;
28483;SDS011;15704;48.834;8.736;2022-10-16T07:13:32;0.82;;;0.73;;
28483;SDS011;15704;48.834;8.736;2022-10-16T07:16:04;0.88;;;0.50;;
28483;SDS011;15704;48.834;8.736;2022-10-16T07:18:31;0.45;;;0.45;;
28483;SDS011;15704;48.834;8.736;2022-10-16T07:21:03;0.82;;;0.60;;
28483;SDS011;15704;48.834;8.736;2022-10-16T07:23:32;0.60;;;0.50;;
28483;SDS011;15704;48.834;8.736;2022-10-16T07:25:57;0.50;;;0.50;;
28483;SDS011;15704;48.834;8.736;2022-10-16T07:28:23;0.50;;;0.50;;
28483;SDS011;15704;48.834;8.736;2022-10-16T07:30:49;1.17;;;0.57;;
28483;SDS011;15704;48.834;8.736;2022-10-16T07:33:14;1.25;;;0.70;;
28483;SDS011;15704;48.834;8.736;2022-10-16T07:35:50;0.63;;;0.50;;
28483;SDS011;15704;48.834;8.736;2022-10-16T07:38:16;0.82;;;0.45;;
28483;SDS011;15704;48.834;8.736;2022-10-16T07:40:42;0.50;;;0.50;;
28483;SDS011;15704;48.834;8.736;2022-10-16T07:43:08;2.58;;;0.60;;
28483;SDS011;15704;48.834;8.736;2022-10-16T07:45:34;0.40;;;0.40;;
28483;SDS011;15704;48.834;8.736;2022-10-16T07:48:00;0.55;;;0.50;;
28483;SDS011;15704;48.834;8.736;2022-10-16T07:50:25;0.50;;;0.50;;
28483;SDS011;15704;48.834;8.736;2022-10-16T07:52:51;0.43;;;0.43;;
28483;SDS011;15704;48.834;8.736;2022-10-16T07:55:17;0.40;;;0.40;;
28483;SDS011;15704;48.834;8.736;2022-10-16T07:57:42;0.60;;;0.60;;
28483;SDS011;15704;48.834;8.736;2022-10-16T08:00:08;0.30;;;0.30;;
28483;SDS011;15704;48.834;8.736;2022-10-16T08:02:38;0.68;;;0.63;;
28483;SDS011;15704;48.834;8.736;2022-10-16T08:05:07;0.50;;;0.40;;
28483;SDS011;15704;48.834;8.736;2022-10-16T08:07:33;0.95;;;0.60;;
28483;SDS011;15704;48.834;8.736;2022-10-16T08:09:58;0.88;;;0.60;;
28483;SDS011;15704;48.834;8.736;2022-10-16T08:12:25;0.40;;;0.40;;
28483;SDS011;15704;48.834;8.736;2022-10-16T08:14:51;0.55;;;0.55;;
28483;SDS011;15704;48.834;8.736;2022-10-16T08:17:16;0.50;;;0.50;;
28483;SDS011;15704;48.834;8.736;2022-10-16T08:19:48;1.58;;;0.60;;
28483;SDS011;15704;48.834;8.736;2022-10-16T08:22:14;0.50;;;0.50;;
28483;SDS011;15704;48.834;8.736;2022-10-16T08:24:40;0.30;;;0.30;;
28483;SDS011;15704;48.834;8.736;2022-10-16T08:27:06;0.50;;;0.50;;
28483;SDS011;15704;48.834;8.736;2022-10-16T08:29:33;0.50;;;0.50;;
28483;SDS011;15704;48.834;8.736;2022-10-16T08:31:59;0.60;;;0.60;;
28483;SDS011;15704;48.834;8.736;2022-10-16T08:34:24;0.50;;;0.50;;
28483;SDS011;15704;48.834;8.736;2022-10-16T08:36:52;0.40;;;0.40;;
28483;SDS011;15704;48.834;8.736;2022-10-16T08:39:18;1.27;;;0.82;;
28483;SDS011;15704;48.834;8.736;2022-10-16T08:50:10;0.38;;;0.32;;
28483;SDS011;15704;48.834;8.736;2022-10-16T08:52:39;0.50;;;0.50;;
28483;SDS011;15704;48.834;8.736;2022-10-16T08:55:14;0.57;;;0.47;;
28483;SDS011;15704;48.834;8.736;2022-10-16T08:57:55;0.40;;;0.40;;
28483;SDS011;15704;48.834;8.736;2022-10-16T09:00:21;0.50;;;0.50;;
28483;SDS011;15704;48.834;8.736;2022-10-16T09:02:52;0.50;;;0.45;;
28483;SDS011;15704;48.834;8.736;2022-10-16T09:11:57;0.50;;;0.40;;
28483;SDS011;15704;48.834;8.736;2022-10-16T09:15:05;0.57;;;0.50;;
28483;SDS011;15704;48.834;8.736;2022-10-16T09:22:34;2.85;;;0.40;;
28483;SDS011;15704;48.834;8.736;2022-10-16T09:25:00;1.38;;;0.60;;
28483;SDS011;15704;48.834;8.736;2022-10-16T09:27:35;0.50;;;0.50;;
28483;SDS011;15704;48.834;8.736;2022-10-16T09:30:01;0.50;;;0.50;;
28483;SDS011;15704;48.834;8.736;2022-10-16T09:32:27;0.82;;;0.50;;
28483;SDS011;15704;48.834;8.736;2022-10-16T09:34:54;4.43;;;0.73;;
28483;SDS011;15704;48.834;8.736;2022-10-16T09:37:23;0.30;;;0.30;;
28483;SDS011;15704;48.834;8.736;2022-10-16T09:39:50;1.13;;;0.60;;
28483;SDS011;15704;48.834;8.736;2022-10-16T09:42:20;2.28;;;0.95;;
28483;SDS011;15704;48.834;8.736;2022-10-16T09:44:49;3.65;;;0.52;;
28483;SDS011;15704;48.834;8.736;2022-10-16T09:47:18;0.68;;;0.50;;
28483;SDS011;15704;48.834;8.736;2022-10-16T09:49:55;1.27;;;0.40;;
28483;SDS011;15704;48.834;8.736;2022-10-16T09:52:26;5.30;;;0.75;;
28483;SDS011;15704;48.834;8.736;2022-10-16T09:54:55;2.33;;;0.50;;
28483;SDS011;15704;48.834;8.736;2022-10-16T09:57:22;0.63;;;0.50;;
28483;SDS011;15704;48.834;8.736;2022-10-16T09:59:49;1.77;;;0.50;;
28483;SDS011;15704;48.834;8.736;2022-10-16T10:02:17;0.52;;;0.50;;
28483;SDS011;15704;48.834;8.736;2022-10-16T10:04:51;1.45;;;0.45;;
28483;SDS011;15704;48.834;8.736;2022-10-16T10:07:25;1.00;;;0.40;;
28483;SDS011;15704;48.834;8.736;2022-10-16T10:09:52;0.40;;;0.40;;
28483;SDS011;15704;48.834;8.736;2022-10-16T10:12:26;1.85;;;0.50;;
28483;SDS011;15704;48.834;8.736;2022-10-16T10:14:56;1.67;;;0.57;;
28483;SDS011;15704;48.834;8.736;2022-10-16T10:17:28;1.90;;;0.70;;
28483;SDS011;15704;48.834;8.736;2022-10-16T10:19:55;2.08;;;0.57;;
28483;SDS011;15704;48.834;8.736;2022-10-16T10:22:23;4.25;;;0.68;;
28483;SDS011;15704;48.834;8.736;2022-10-16T10:24:54;3.35;;;0.60;;
28483;SDS011;15704;48.834;8.736;2022-10-16T10:27:20;0.52;;;0.30;;
28483;SDS011;15704;48.834;8.736;2022-10-16T10:30:01;0.70;;;0.55;;
28483;SDS011;15704;48.834;8.736;2022-10-16T10:32:43;0.40;;;0.40;;
28483;SDS011;15704;48.834;8.736;2022-10-16T10:37:58;2.38;;;0.50;;
28483;SDS011;15704;48.834;8.736;2022-10-16T10:40:51;0.80;;;0.60;;
28483;SDS011;15704;48.834;8.736;2022-10-16T10:46:15;0.95;;;0.47;;
28483;SDS011;15704;48.834;8.736;2022-10-16T10:59:40;0.45;;;0.43;;
28483;SDS011;15704;48.834;8.736;2022-10-16T11:02:35;0.65;;;0.60;;
28483;SDS011;15704;48.834;8.736;2022-10-16T11:10:48;0.80;;;0.60;;
28483;SDS011;15704;48.834;8.736;2022-10-16T11:13:32;3.50;;;0.77;;
28483;SDS011;15704;48.834;8.736;2022-10-16T11:16:20;0.38;;;0.38;;
28483;SDS011;15704;48.834;8.736;2022-10-16T11:18:56;2.17;;;0.63;;
28483;SDS011;15704;48.834;8.736;2022-10-16T11:27:21;0.43;;;0.43;;
28483;SDS011;15704;48.834;8.736;2022-10-16T11:30:16;1.10;;;0.75;;
28483;SDS011;15704;48.834;8.736;2022-10-16T11:38:32;1.23;;;0.70;;
28483;SDS011;15704;48.834;8.736;2022-10-16T11:41:08;0.60;;;0.60;;
28483;SDS011;15704;48.834;8.736;2022-10-16T11:43:43;1.20;;;0.73;;
28483;SDS011;15704;48.834;8.736;2022-10-16T11:46:17;2.30;;;0.75;;
28483;SDS011;15704;48.834;8.736;2022-10-16T11:48:50;0.63;;;0.60;;
28483;SDS011;15704;48.834;8.736;2022-10-16T11:51:29;0.80;;;0.80;;
28483;SDS011;15704;48.834;8.736;2022-10-16T11:56:39;0.90;;;0.70;;
28483;SDS011;15704;48.834;8.736;2022-10-16T11:59:30;0.60;;;0.60;;
28483;SDS011;15704;48.834;8.736;2022-10-16T12:04:34;0.90;;;0.75;;
28483;SDS011;15704;48.834;8.736;2022-10-16T12:07:17;0.93;;;0.63;;
28483;SDS011;15704;48.834;8.736;2022-10-16T12:09:47;1.02;;;0.60;;
28483;SDS011;15704;48.834;8.736;2022-10-16T12:12:26;0.70;;;0.68;;
28483;SDS011;15704;48.834;8.736;2022-10-16T12:15:23;0.75;;;0.63;;
28483;SDS011;15704;48.834;8.736;2022-10-16T12:17:47;3.75;;;0.70;;
28483;SDS011;15704;48.834;8.736;2022-10-16T12:22:55;1.00;;;0.77;;
28483;SDS011;15704;48.834;8.736;2022-10-16T12:27:56;1.15;;;0.70;;
28483;SDS011;15704;48.834;8.736;2022-10-16T12:30:24;0.80;;;0.80;;
28483;SDS011;15704;48.834;8.736;2022-10-16T12:33:02;1.00;;;0.50;;
28483;SDS011;15704;48.834;8.736;2022-10-16T12:35:30;0.68;;;0.68;;
28483;SDS011;15704;48.834;8.736;2022-10-16T12:38:05;0.60;;;0.55;;
28483;SDS011;15704;48.834;8.736;2022-10-16T12:40:43;4.15;;;0.60;;
28483;SDS011;15704;48.834;8.736;2022-10-16T12:43:11;0.70;;;0.60;;
28483;SDS011;15704;48.834;8.736;2022-10-16T12:45:48;2.17;;;0.80;;
28483;SDS011;15704;48.834;8.736;2022-10-16T12:48:24;0.55;;;0.55;;
28483;SDS011;15704;48.834;8.736;2022-10-16T12:50:50;0.70;;;0.70;;
28483;SDS011;15704;48.834;8.736;2022-10-16T12:53:22;2.67;;;0.65;;
28483;SDS011;15704;48.834;8.736;2022-10-16T12:59:02;0.80;;;0.63;;
28483;SDS011;15704;48.834;8.736;2022-10-16T13:01:39;0.50;;;0.50;;
28483;SDS011;15704;48.834;8.736;2022-10-16T13:10:02;0.52;;;0.50;;
28483;SDS011;15704;48.834;8.736;2022-10-16T13:30:00;0.55;;;0.50;;
28483;SDS011;15704;48.834;8.736;2022-10-16T13:32:33;1.13;;;0.70;;
28483;SDS011;15704;48.834;8.736;2022-10-16T13:34:59;1.75;;;0.60;;
28483;SDS011;15704;48.834;8.736;2022-10-16T13:37:26;1.38;;;0.50;;
28483;SDS011;15704;48.834;8.736;2022-10-16T13:40:01;1.70;;;0.80;;
28483;SDS011;15704;48.834;8.736;2022-10-16T13:42:42;1.02;;;0.80;;
28483;SDS011;15704;48.834;8.736;2022-10-16T13:45:16;1.73;;;0.63;;
28483;SDS011;15704;48.834;8.736;2022-10-16T13:47:43;0.50;;;0.50;;
28483;SDS011;15704;48.834;8.736;2022-10-16T13:50:11;1.63;;;0.60;;
28483;SDS011;15704;48.834;8.736;2022-10-16T13:52:37;0.82;;;0.52;;
28483;SDS011;15704;48.834;8.736;2022-10-16T13:55:04;0.50;;;0.50;;
28483;SDS011;15704;48.834;8.736;2022-10-16T13:57:40;2.60;;;0.60;;
28483;SDS011;15704;48.834;8.736;2022-10-16T14:00:25;2.17;;;0.82;;
28483;SDS011;15704;48.834;8.736;2022-10-16T14:03:00;1.75;;;0.77;;
28483;SDS011;15704;48.834;8.736;2022-10-16T14:05:28;0.57;;;0.50;;
28483;SDS011;15704;48.834;8.736;2022-10-16T14:07:54;1.17;;;0.82;;
28483;SDS011;15704;48.834;8.736;2022-10-16T14:10:22;0.65;;;0.55;;
28483;SDS011;15704;48.834;8.736;2022-10-16T14:12:54;0.52;;;0.52;;
28483;SDS011;15704;48.834;8.736;2022-10-16T14:15:31;1.25;;;0.70;;
28483;SDS011;15704;48.834;8.736;2022-10-16T14:17:58;0.70;;;0.50;;
28483;SDS011;15704;48.834;8.736;2022-10-16T14:20:27;0.75;;;0.60;;
28483;SDS011;15704;48.834;8.736;2022-10-16T14:23:02;1.02;;;0.60;;
28483;SDS011;15704;48.834;8.736;2022-10-16T14:25:49;0.68;;;0.60;;
28483;SDS011;15704;48.834;8.736;2022-10-16T14:30:54;1.52;;;0.77;;
28483;SDS011;15704;48.834;8.736;2022-10-16T14:33:30;0.80;;;0.60;;
28483;SDS011;15704;48.834;8.736;2022-10-16T14:38:35;0.75;;;0.70;;
28483;SDS011;15704;48.834;8.736;2022-10-16T14:41:02;1.58;;;0.60;;
28483;SDS011;15704;48.834;8.736;2022-10-16T14:45:59;2.50;;;0.60;;
28483;SDS011;15704;48.834;8.736;2022-10-16T14:48:26;0.60;;;0.50;;
28483;SDS011;15704;48.834;8.736;2022-10-16T14:50:52;0.52;;;0.52;;
28483;SDS011;15704;48.834;8.736;2022-10-16T14:53:17;0.85;;;0.60;;
28483;SDS011;15704;48.834;8.736;2022-10-16T14:55:43;0.50;;;0.50;;
28483;SDS011;15704;48.834;8.736;2022-10-16T14:58:11;0.80;;;0.60;;
28483;SDS011;15704;48.834;8.736;2022-10-16T15:00:39;0.50;;;0.50;;
28483;SDS011;15704;48.834;8.736;2022-10-16T15:03:04;0.50;;;0.50;;
28483;SDS011;15704;48.834;8.736;2022-10-16T15:05:30;1.05;;;0.60;;
28483;SDS011;15704;48.834;8.736;2022-10-16T15:07:57;0.40;;;0.40;;
28483;SDS011;15704;48.834;8.736;2022-10-16T15:10:23;1.17;;;0.65;;
28483;SDS011;15704;48.834;8.736;2022-10-16T15:12:51;0.63;;;0.60;;
28483;SDS011;15704;48.834;8.736;2022-10-16T15:17:51;0.55;;;0.40;;
28483;SDS011;15704;48.834;8.736;2022-10-16T15:20:22;1.20;;;0.50;;
28483;SDS011;15704;48.834;8.736;2022-10-16T15:22:49;0.77;;;0.57;;
28483;SDS011;15704;48.834;8.736;2022-10-16T15:27:59;0.50;;;0.50;;
28483;SDS011;15704;48.834;8.736;2022-10-16T15:30:26;0.52;;;0.52;;
28483;SDS011;15704;48.834;8.736;2022-10-16T15:32:52;0.77;;;0.60;;
28483;SDS011;15704;48.834;8.736;2022-10-16T15:35:17;1.50;;;0.60;;
28483;SDS011;15704;48.834;8.736;2022-10-16T15:37:43;0.50;;;0.50;;
28483;SDS011;15704;48.834;8.736;2022-10-16T15:40:09;0.45;;;0.45;;
28483;SDS011;15704;48.834;8.736;2022-10-16T15:42:35;0.57;;;0.50;;
28483;SDS011;15704;48.834;8.736;2022-10-16T15:45:01;1.77;;;0.93;;
28483;SDS011;15704;48.834;8.736;2022-10-16T15:47:28;0.55;;;0.50;;
28483;SDS011;15704;48.834;8.736;2022-10-16T15:49:53;0.52;;;0.52;;
28483;SDS011;15704;48.834;8.736;2022-10-16T15:52:19;0.82;;;0.70;;
28483;SDS011;15704;48.834;8.736;2022-10-16T15:54:44;1.27;;;0.65;;
28483;SDS011;15704;48.834;8.736;2022-10-16T15:57:10;1.60;;;0.93;;
28483;SDS011;15704;48.834;8.736;2022-10-16T15:59:35;1.00;;;0.82;;
28483;SDS011;15704;48.834;8.736;2022-10-16T16:02:01;1.83;;;0.90;;
28483;SDS011;15704;48.834;8.736;2022-10-16T16:04:29;1.00;;;0.90;;
28483;SDS011;15704;48.834;8.736;2022-10-16T16:06:55;2.20;;;1.00;;
28483;SDS011;15704;48.834;8.736;2022-10-16T16:09:21;3.03;;;1.25;;
28483;SDS011;15704;48.834;8.736;2022-10-16T16:11:46;1.13;;;0.90;;
28483;SDS011;15704;48.834;8.736;2022-10-16T16:14:12;3.33;;;1.10;;
28483;SDS011;15704;48.834;8.736;2022-10-16T16:16:39;4.63;;;1.40;;
28483;SDS011;15704;48.834;8.736;2022-10-16T16:19:05;3.30;;;1.25;;
28483;SDS011;15704;48.834;8.736;2022-10-16T16:21:32;2.80;;;1.30;;
28483;SDS011;15704;48.834;8.736;2022-10-16T16:23:58;2.90;;;1.17;;
28483;SDS011;15704;48.834;8.736;2022-10-16T16:28:51;7.75;;;1.70;;
28483;SDS011;15704;48.834;8.736;2022-10-16T16:31:17;6.68;;;1.60;;
28483;SDS011;15704;48.834;8.736;2022-10-16T16:33:43;2.22;;;1.33;;
28483;SDS011;15704;48.834;8.736;2022-10-16T16:36:08;3.47;;;1.05;;
28483;SDS011;15704;48.834;8.736;2022-10-16T16:38:34;1.13;;;0.82;;
28483;SDS011;15704;48.834;8.736;2022-10-16T16:41:09;3.13;;;1.30;;
28483;SDS011;15704;48.834;8.736;2022-10-16T16:43:39;1.85;;;1.25;;
28483;SDS011;15704;48.834;8.736;2022-10-16T16:46:05;1.63;;;1.08;;
28483;SDS011;15704;48.834;8.736;2022-10-16T16:48:31;3.70;;;1.33;;
28483;SDS011;15704;48.834;8.736;2022-10-16T16:50:57;3.97;;;1.40;;
28483;SDS011;15704;48.834;8.736;2022-10-16T16:53:32;4.75;;;1.42;;
28483;SDS011;15704;48.834;8.736;2022-10-16T16:56:03;1.13;;;1.02;;
28483;SDS011;15704;48.834;8.736;2022-10-16T16:58:29;2.35;;;1.40;;
28483;SDS011;15704;48.834;8.736;2022-10-16T17:00:55;1.80;;;1.10;;
28483;SDS011;15704;48.834;8.736;2022-10-16T17:03:25;1.33;;;1.20;;